sensor_id;sensor_type;location;lat;lon;timestamp;pressure;altitude;pressure_sealevel;temperature;humidity
74913;BME280;63878;55.624;37.304;2022-12-20T00:09:30;100075.66;;;-2.57;71.79
74913;BME280;63878;55.624;37.304;2022-12-20T00:19:30;100055.19;;;-2.67;71.11
74913;BME280;63878;55.624;37.304;2022-12-20T00:29:30;100058.56;;;-2.41;71.42
74913;BME280;63878;55.624;37.304;2022-12-20T00:39:31;100043.19;;;-2.64;70.83
74913;BME280;63878;55.624;37.304;2022-12-20T00:49:32;100038.09;;;-2.67;70.87
74913;BME280;63878;55.624;37.304;2022-12-20T00:59:33;100009.03;;;-2.78;71.52
74913;BME280;63878;55.624;37.304;2022-12-20T01:09:34;100014.97;;;-2.88;71.82
74913;BME280;63878;55.624;37.304;2022-12-20T01:19:35;100011.59;;;-2.77;71.67
74913;BME280;63878;55.624;37.304;2022-12-20T01:29:35;100001.34;;;-2.86;71.15
74913;BME280;63878;55.624;37.304;2022-12-20T01:39:36;99979.13;;;-2.91;71.09
74913;BME280;63878;55.624;37.304;2022-12-20T01:49:42;99962.88;;;-3.01;69.92
74913;BME280;63878;55.624;37.304;2022-12-20T01:59:45;99952.66;;;-3.19;70.32
74913;BME280;63878;55.624;37.304;2022-12-20T02:09:48;99956.88;;;-3.41;67.73
74913;BME280;63878;55.624;37.304;2022-12-20T02:30:03;99946.63;;;-3.41;67.23
74913;BME280;63878;55.624;37.304;2022-12-20T02:40:05;99904.69;;;-3.95;66.86
74913;BME280;63878;55.624;37.304;2022-12-20T02:50:06;99927.78;;;-3.75;65.76
74913;BME280;63878;55.624;37.304;2022-12-20T03:00:12;99912.34;;;-4.03;63.82
74913;BME280;63878;55.624;37.304;2022-12-20T03:10:13;99891.00;;;-4.16;64.07
74913;BME280;63878;55.624;37.304;2022-12-20T03:20:14;99867.13;;;-4.19;63.43
74913;BME280;63878;55.624;37.304;2022-12-20T03:30:15;99868.81;;;-4.23;63.03
74913;BME280;63878;55.624;37.304;2022-12-20T03:40:15;99859.53;;;-3.87;62.11
74913;BME280;63878;55.624;37.304;2022-12-20T03:50:16;99839.06;;;-3.89;61.16
74913;BME280;63878;55.624;37.304;2022-12-20T04:00:17;99822.03;;;-3.79;59.95
74913;BME280;63878;55.624;37.304;2022-12-20T04:10:18;99796.47;;;-3.74;58.61
74913;BME280;63878;55.624;37.304;2022-12-20T04:20:19;99782.81;;;-3.60;57.70
74913;BME280;63878;55.624;37.304;2022-12-20T04:30:20;99768.28;;;-3.64;56.49
74913;BME280;63878;55.624;37.304;2022-12-20T04:40:21;99785.34;;;-3.92;57.54
74913;BME280;63878;55.624;37.304;2022-12-20T04:50:21;99767.41;;;-3.95;56.67
74913;BME280;63878;55.624;37.304;2022-12-20T05:00:22;99763.16;;;-4.19;56.60
74913;BME280;63878;55.624;37.304;2022-12-20T05:10:23;99752.94;;;-4.03;56.39
74913;BME280;63878;55.624;37.304;2022-12-20T05:20:28;99737.59;;;-4.13;56.34
74913;BME280;63878;55.624;37.304;2022-12-20T05:30:29;99716.19;;;-4.67;57.88
74913;BME280;63878;55.624;37.304;2022-12-20T05:40:29;99704.31;;;-4.31;56.83
74913;BME280;63878;55.624;37.304;2022-12-20T05:50:30;99706.03;;;-4.24;55.82
74913;BME280;63878;55.624;37.304;2022-12-20T06:00:31;99704.34;;;-4.28;56.12
74913;BME280;63878;55.624;37.304;2022-12-20T06:10:33;99702.63;;;-4.30;54.96
74913;BME280;63878;55.624;37.304;2022-12-20T06:20:34;99691.53;;;-4.32;56.49
74913;BME280;63878;55.624;37.304;2022-12-20T06:30:35;99677.91;;;-4.36;56.63
74913;BME280;63878;55.624;37.304;2022-12-20T06:40:36;99651.47;;;-4.09;54.46
74913;BME280;63878;55.624;37.304;2022-12-20T06:50:39;99648.09;;;-4.19;54.90
74913;BME280;63878;55.624;37.304;2022-12-20T07:00:40;99620.81;;;-4.36;55.18
74913;BME280;63878;55.624;37.304;2022-12-20T07:10:40;99610.59;;;-4.46;54.74
74913;BME280;63878;55.624;37.304;2022-12-20T07:20:41;99585.03;;;-4.32;54.68
74913;BME280;63878;55.624;37.304;2022-12-20T07:30:42;99558.56;;;-4.02;55.03
74913;BME280;63878;55.624;37.304;2022-12-20T07:40:42;99545.81;;;-4.16;53.77
74913;BME280;63878;55.624;37.304;2022-12-20T07:50:43;99522.84;;;-4.28;55.12
74913;BME280;63878;55.624;37.304;2022-12-20T08:00:43;99498.97;;;-4.27;54.38
74913;BME280;63878;55.624;37.304;2022-12-20T08:10:44;99481.13;;;-4.45;54.53
74913;BME280;63878;55.624;37.304;2022-12-20T08:20:45;99464.03;;;-4.29;55.90
74913;BME280;63878;55.624;37.304;2022-12-20T08:30:47;99446.22;;;-4.52;54.56
74913;BME280;63878;55.624;37.304;2022-12-20T08:40:47;99448.72;;;-4.39;53.82
74913;BME280;63878;55.624;37.304;2022-12-20T08:50:59;99427.47;;;-4.53;54.05
74913;BME280;63878;55.624;37.304;2022-12-20T09:01:02;99407.88;;;-4.46;54.72
74913;BME280;63878;55.624;37.304;2022-12-20T09:11:10;99392.53;;;-4.55;54.82
74913;BME280;63878;55.624;37.304;2022-12-20T09:21:11;99367.00;;;-4.63;55.81
74913;BME280;63878;55.624;37.304;2022-12-20T09:31:15;99332.94;;;-4.59;54.75
74913;BME280;63878;55.624;37.304;2022-12-20T09:41:28;99318.47;;;-4.57;55.50
74913;BME280;63878;55.624;37.304;2022-12-20T09:51:57;99285.91;;;-4.20;55.10
74913;BME280;63878;55.624;37.304;2022-12-20T10:02:10;99262.91;;;-4.24;55.02
74913;BME280;63878;55.624;37.304;2022-12-20T10:12:24;99240.75;;;-4.21;55.29
74913;BME280;63878;55.624;37.304;2022-12-20T10:22:48;99229.75;;;-4.35;56.01
74913;BME280;63878;55.624;37.304;2022-12-20T10:32:53;99215.84;;;-3.97;54.22
74913;BME280;63878;55.624;37.304;2022-12-20T10:42:54;99207.53;;;-4.28;55.78
74913;BME280;63878;55.624;37.304;2022-12-20T10:53:22;99188.91;;;-4.40;55.74
74913;BME280;63878;55.624;37.304;2022-12-20T11:03:22;99199.78;;;-4.16;56.52
74913;BME280;63878;55.624;37.304;2022-12-20T11:13:24;99200.84;;;-4.43;57.32
74913;BME280;63878;55.624;37.304;2022-12-20T11:23:40;99192.28;;;-4.34;57.83
74913;BME280;63878;55.624;37.304;2022-12-20T11:44:28;99164.25;;;-4.50;57.69
74913;BME280;63878;55.624;37.304;2022-12-20T11:54:42;99168.84;;;-5.01;59.32
74913;BME280;63878;55.624;37.304;2022-12-20T12:04:52;99144.97;;;-4.94;58.61
74913;BME280;63878;55.624;37.304;2022-12-20T12:25:16;99133.81;;;-4.80;58.22
74913;BME280;63878;55.624;37.304;2022-12-20T12:55:47;99149.47;;;-5.47;61.34
74913;BME280;63878;55.624;37.304;2022-12-20T13:05:49;99138.41;;;-5.53;61.30
74913;BME280;63878;55.624;37.304;2022-12-20T13:15:51;99133.25;;;-5.39;60.83
74913;BME280;63878;55.624;37.304;2022-12-20T13:25:52;99131.63;;;-5.54;61.37
74913;BME280;63878;55.624;37.304;2022-12-20T13:56:32;99128.16;;;-5.42;62.04
74913;BME280;63878;55.624;37.304;2022-12-20T14:06:34;99118.72;;;-5.25;61.26
74913;BME280;63878;55.624;37.304;2022-12-20T14:16:34;99108.56;;;-5.37;62.29
74913;BME280;63878;55.624;37.304;2022-12-20T14:26:41;99103.47;;;-5.38;61.89
74913;BME280;63878;55.624;37.304;2022-12-20T14:36:45;99095.00;;;-5.43;61.98
74913;BME280;63878;55.624;37.304;2022-12-20T14:46:52;99101.84;;;-5.52;62.48
74913;BME280;63878;55.624;37.304;2022-12-20T14:56:53;99101.91;;;-5.67;63.18
74913;BME280;63878;55.624;37.304;2022-12-20T15:06:54;99085.66;;;-5.51;62.96
74913;BME280;63878;55.624;37.304;2022-12-20T15:16:55;99090.81;;;-5.60;62.81
74913;BME280;63878;55.624;37.304;2022-12-20T15:26:55;99098.47;;;-5.64;63.41
74913;BME280;63878;55.624;37.304;2022-12-20T15:36:56;99103.56;;;-5.63;63.97
74913;BME280;63878;55.624;37.304;2022-12-20T15:46:57;99113.78;;;-5.60;63.49
74913;BME280;63878;55.624;37.304;2022-12-20T15:57:00;99095.91;;;-5.63;63.63
74913;BME280;63878;55.624;37.304;2022-12-20T16:07:01;99090.03;;;-5.74;63.85
74913;BME280;63878;55.624;37.304;2022-12-20T16:17:01;99092.59;;;-5.79;63.96
74913;BME280;63878;55.624;37.304;2022-12-20T16:27:02;99090.91;;;-5.87;64.56
74913;BME280;63878;55.624;37.304;2022-12-20T16:37:03;99095.16;;;-5.86;63.57
74913;BME280;63878;55.624;37.304;2022-12-20T16:47:03;99090.97;;;-5.98;64.83
74913;BME280;63878;55.624;37.304;2022-12-20T16:57:04;99112.19;;;-5.91;63.81
74913;BME280;63878;55.624;37.304;2022-12-20T17:07:04;99109.66;;;-5.93;64.71
74913;BME280;63878;55.624;37.304;2022-12-20T17:17:05;99099.41;;;-5.90;64.46
74913;BME280;63878;55.624;37.304;2022-12-20T17:27:08;99102.84;;;-5.95;65.19
74913;BME280;63878;55.624;37.304;2022-12-20T17:37:09;99083.34;;;-6.01;65.62
74913;BME280;63878;55.624;37.304;2022-12-20T17:47:10;99088.41;;;-6.09;65.82
74913;BME280;63878;55.624;37.304;2022-12-20T17:57:14;99102.03;;;-6.05;67.07
74913;BME280;63878;55.624;37.304;2022-12-20T18:07:15;99090.03;;;-5.85;65.80
74913;BME280;63878;55.624;37.304;2022-12-20T18:17:16;99088.41;;;-5.96;67.15
74913;BME280;63878;55.624;37.304;2022-12-20T18:27:16;99081.25;;;-5.13;63.98
74913;BME280;63878;55.624;37.304;2022-12-20T18:37:17;99075.16;;;-4.96;63.31
74913;BME280;63878;55.624;37.304;2022-12-20T18:47:17;99070.72;;;-4.69;62.89
74913;BME280;63878;55.624;37.304;2022-12-20T18:57:18;99069.28;;;-5.08;64.34
74913;BME280;63878;55.624;37.304;2022-12-20T19:07:19;99064.97;;;-5.02;64.86
74913;BME280;63878;55.624;37.304;2022-12-20T19:17:19;99074.25;;;-4.85;63.92
74913;BME280;63878;55.624;37.304;2022-12-20T19:27:21;99074.47;;;-5.17;65.89
74913;BME280;63878;55.624;37.304;2022-12-20T19:37:22;99070.16;;;-5.09;65.26
74913;BME280;63878;55.624;37.304;2022-12-20T19:47:22;99079.41;;;-4.96;65.86
74913;BME280;63878;55.624;37.304;2022-12-20T19:57:23;99087.13;;;-5.04;66.46
74913;BME280;63878;55.624;37.304;2022-12-20T20:07:24;99085.41;;;-4.99;66.40
74913;BME280;63878;55.624;37.304;2022-12-20T20:17:25;99089.56;;;-4.81;66.10
74913;BME280;63878;55.624;37.304;2022-12-20T20:27:25;99092.25;;;-5.04;65.95
74913;BME280;63878;55.624;37.304;2022-12-20T20:37:26;99092.31;;;-5.16;65.55
74913;BME280;63878;55.624;37.304;2022-12-20T20:47:27;99077.81;;;-5.06;65.59
74913;BME280;63878;55.624;37.304;2022-12-20T20:57:28;99082.06;;;-5.10;66.46
74913;BME280;63878;55.624;37.304;2022-12-20T21:07:29;99095.75;;;-5.25;66.44
74913;BME280;63878;55.624;37.304;2022-12-20T21:17:30;99111.13;;;-5.37;67.49
74913;BME280;63878;55.624;37.304;2022-12-20T21:27:31;99098.31;;;-5.22;66.55
74913;BME280;63878;55.624;37.304;2022-12-20T21:37:31;99098.31;;;-5.20;67.23
74913;BME280;63878;55.624;37.304;2022-12-20T21:47:34;99099.22;;;-5.33;67.44
74913;BME280;63878;55.624;37.304;2022-12-20T21:57:34;99088.97;;;-5.30;67.45
74913;BME280;63878;55.624;37.304;2022-12-20T22:07:35;99096.66;;;-5.32;68.62
74913;BME280;63878;55.624;37.304;2022-12-20T22:17:36;99095.69;;;-5.12;67.50
74913;BME280;63878;55.624;37.304;2022-12-20T22:27:36;99088.00;;;-5.05;67.50
74913;BME280;63878;55.624;37.304;2022-12-20T22:37:37;99071.88;;;-5.11;67.95
74913;BME280;63878;55.624;37.304;2022-12-20T22:47:39;99062.56;;;-5.23;67.74
74913;BME280;63878;55.624;37.304;2022-12-20T22:57:39;99070.88;;;-4.87;68.16
74913;BME280;63878;55.624;37.304;2022-12-20T23:07:40;99061.63;;;-5.07;68.46
74913;BME280;63878;55.624;37.304;2022-12-20T23:17:41;99059.16;;;-5.22;69.71
74913;BME280;63878;55.624;37.304;2022-12-20T23:27:43;99051.53;;;-5.25;69.54
74913;BME280;63878;55.624;37.304;2022-12-20T23:37:44;99049.72;;;-5.06;68.68
74913;BME280;63878;55.624;37.304;2022-12-20T23:47:44;99032.59;;;-4.95;69.23
74913;BME280;63878;55.624;37.304;2022-12-20T23:57:45;99046.44;;;-5.25;69.93
